Terminal Aerodrome Forecast
Issued by NWS

Home | Current Version | Previous Version | Text Only | Print | Product List | Glossary On
Versions: 1 2 3 4 5 6 7 8 9 10 11 12 13 14 15 16 17 18 19
000
FTUS45 KTFX 191100
TAFHVR
TAF
KHVR 191124Z 1912/2012 28011KT P6SM BKN080
     FM191400 25011KT P6SM SKC
     FM191900 25015G22KT P6SM SCT200
     FM200800 28022G32KT P6SM BKN080=

USA.gov is the U.S. government's official web portal to all federal, state and local government web resources and services.